createdAt,value
2024-03-12T00:00:03.521Z,17.88
2024-03-12T00:05:03.509Z,17.83
2024-03-12T00:10:03.257Z,17.68
2024-03-12T00:15:02.953Z,17.68
2024-03-12T00:20:02.560Z,17.85
2024-03-12T00:25:03.476Z,17.8
2024-03-12T00:30:03.062Z,17.88
2024-03-12T00:35:02.613Z,17.82
2024-03-12T00:40:03.288Z,17.86
2024-03-12T00:45:03.099Z,17.91
2024-03-12T00:50:02.624Z,17.78
2024-03-12T00:55:03.221Z,17.83
2024-03-12T01:00:02.826Z,17.67
2024-03-12T01:05:03.270Z,17.66
2024-03-12T01:10:02.814Z,17.6
2024-03-12T01:15:02.464Z,17.77
2024-03-12T01:20:03.080Z,17.87
2024-03-12T01:25:02.861Z,17.76
2024-03-12T01:30:02.483Z,17.81
2024-03-12T01:35:03.228Z,17.94
2024-03-12T01:40:02.784Z,18
2024-03-12T01:45:03.388Z,17.75
2024-03-12T01:50:03.033Z,17.56
2024-03-12T01:55:02.582Z,17.54
2024-03-12T02:00:04.497Z,17.51
2024-03-12T02:05:02.949Z,17.77
2024-03-12T02:10:02.640Z,17.56
2024-03-12T02:15:03.336Z,17.8
2024-03-12T02:20:02.992Z,17.8
2024-03-12T02:25:02.651Z,17.75
2024-03-12T02:30:03.286Z,17.82
2024-03-12T02:35:02.823Z,17.75
2024-03-12T02:40:03.342Z,17.96
2024-03-12T02:45:03.037Z,17.92
2024-03-12T02:50:02.635Z,17.97
2024-03-12T02:55:03.235Z,17.84
2024-03-12T03:00:02.800Z,17.71
2024-03-12T03:05:03.359Z,17.83
2024-03-12T03:10:02.939Z,17.72
2024-03-12T03:15:02.453Z,17.8
2024-03-12T03:20:03.098Z,17.83
2024-03-12T03:25:02.802Z,17.71
2024-03-12T03:30:02.481Z,17.69
2024-03-12T03:35:02.963Z,17.93
2024-03-12T03:40:02.663Z,17.87
2024-03-12T03:45:03.293Z,17.76
2024-03-12T03:50:02.801Z,17.74
2024-03-12T03:55:03.442Z,17.65
2024-03-12T04:00:03.013Z,17.45
2024-03-12T04:05:02.485Z,17.67
2024-03-12T04:10:03.581Z,17.53
2024-03-12T04:15:03.433Z,17.62
2024-03-12T04:20:02.973Z,17.51
2024-03-12T04:25:02.612Z,17.65
2024-03-12T04:30:03.241Z,17.59
2024-03-12T04:35:02.680Z,17.34
2024-03-12T04:40:03.477Z,17.3
2024-03-12T04:45:03.085Z,17.38
2024-03-12T04:50:02.523Z,17.31
2024-03-12T04:55:03.139Z,17.37
2024-03-12T05:00:02.733Z,17.36
2024-03-12T05:05:03.293Z,17.24
2024-03-12T05:10:02.815Z,16.93
2024-03-12T05:15:03.426Z,16.41
2024-03-12T05:20:02.930Z,15.78
2024-03-12T05:25:02.522Z,15.05
2024-03-12T05:30:03.146Z,13.78
2024-03-12T05:35:02.687Z,13.16
2024-03-12T05:40:03.251Z,12.47
2024-03-12T05:45:02.856Z,12.23
2024-03-12T05:50:03.534Z,11.77
2024-03-12T05:55:03.348Z,11.39
2024-03-12T06:00:02.927Z,10.93
2024-03-12T06:05:02.435Z,10.19
2024-03-12T06:10:03.013Z,9.5
2024-03-12T06:15:02.753Z,9.65
2024-03-12T06:20:03.247Z,9.44
2024-03-12T06:25:02.861Z,9.14
2024-03-12T06:30:02.673Z,8.79
2024-03-12T06:35:03.395Z,8.34
2024-03-12T06:40:02.989Z,8.48
2024-03-12T06:45:02.530Z,8.2
2024-03-12T06:50:04.221Z,7.71
2024-03-12T06:55:02.903Z,7.91
2024-03-12T07:00:02.415Z,7.8
2024-03-12T07:05:03.110Z,7.66
2024-03-12T07:10:02.966Z,7.48
2024-03-12T07:15:02.443Z,7.59
2024-03-12T07:20:03.021Z,7.75
2024-03-12T07:25:02.570Z,7.67
2024-03-12T07:30:03.084Z,7.1
2024-03-12T07:35:02.539Z,6.9
2024-03-12T07:40:03.145Z,6.85
2024-03-12T07:45:02.723Z,6.88
2024-03-12T07:50:03.156Z,6.8
2024-03-12T07:55:02.711Z,6.55
2024-03-12T08:00:03.169Z,6.69
2024-03-12T08:05:02.794Z,6.81
2024-03-12T08:10:03.436Z,6.21
2024-03-12T08:15:03.713Z,6.27
2024-03-12T08:20:03.354Z,6.59
2024-03-12T08:25:02.886Z,6.49
2024-03-12T08:30:02.434Z,6.48
2024-03-12T08:35:02.960Z,6.46
2024-03-12T08:40:02.501Z,6.24
2024-03-12T08:45:03.317Z,5.74
2024-03-12T08:50:02.824Z,6.11
2024-03-12T08:55:03.398Z,6.17
2024-03-12T09:00:03.111Z,5.96
2024-03-12T09:05:02.676Z,6.03
2024-03-12T09:10:03.393Z,5.56
2024-03-12T09:15:02.962Z,5.59
2024-03-12T09:20:02.496Z,6.1
2024-03-12T09:25:03.024Z,6.31
2024-03-12T09:30:02.653Z,6.06
2024-03-12T09:35:03.197Z,6.26
2024-03-12T09:40:03.370Z,6.39
2024-03-12T09:45:02.978Z,6.34
2024-03-12T09:50:04.932Z,6.41
2024-03-12T09:55:02.823Z,6.35
2024-03-12T10:00:02.337Z,5.79
2024-03-12T10:05:03.017Z,5.67
2024-03-12T10:10:02.628Z,6.18
2024-03-12T10:15:03.407Z,5.56
2024-03-12T10:20:04.542Z,5.43
2024-03-12T10:25:02.635Z,5.53
2024-03-12T10:30:03.184Z,6.04
2024-03-12T10:35:02.694Z,6.23
2024-03-12T10:40:03.327Z,6.35
2024-03-12T10:45:02.784Z,6.43
2024-03-12T10:50:03.821Z,6.33
2024-03-12T10:55:09.750Z,5.67
2024-03-12T11:00:03.300Z,5.57
2024-03-12T11:05:04.124Z,5.63
2024-03-12T11:10:02.768Z,5.58
2024-03-12T11:15:05.698Z,6.04
2024-03-12T11:20:03.930Z,6.2
2024-03-12T11:25:03.641Z,6.33
2024-03-12T11:30:03.815Z,5.86
2024-03-12T11:35:04.003Z,6.5
2024-03-12T11:40:03.831Z,6.46
2024-03-12T11:45:04.281Z,6.54
2024-03-12T11:50:05.111Z,5.79
2024-03-12T11:55:04.379Z,5.63
2024-03-12T12:00:04.412Z,5.89
2024-03-12T12:05:02.969Z,5.62
2024-03-12T12:10:04.194Z,5.89
2024-03-12T12:15:03.681Z,5.75
2024-03-12T12:20:03.408Z,6.27
2024-03-12T12:25:03.071Z,6.33
2024-03-12T12:30:04.349Z,5.92
2024-03-12T12:35:03.287Z,5.06
2024-03-12T12:40:04.427Z,5.54
2024-03-12T12:45:02.951Z,6.19
2024-03-12T12:50:02.411Z,6.52
2024-03-12T12:55:02.935Z,6.84
2024-03-12T13:00:02.446Z,6.56
2024-03-12T13:05:02.952Z,6.36
2024-03-12T13:10:02.439Z,6.05
2024-03-12T13:15:03.405Z,5.97
2024-03-12T13:20:02.941Z,5.54
2024-03-12T13:25:02.441Z,5.62
2024-03-12T13:30:03.450Z,6.27
2024-03-12T13:35:03.199Z,6.18
2024-03-12T13:40:02.712Z,6
2024-03-12T13:45:03.413Z,6.39
2024-03-12T13:50:03.092Z,6.59
2024-03-12T13:55:02.621Z,6.63
2024-03-12T14:00:02.726Z,6.75
2024-03-12T14:05:05.648Z,6.85
2024-03-12T14:10:02.574Z,6.72
2024-03-12T14:15:03.290Z,6.88
2024-03-12T14:20:02.866Z,6.74
2024-03-12T14:25:02.501Z,6.37
2024-03-12T14:30:03.165Z,6.45
2024-03-12T14:35:02.759Z,6.98
2024-03-12T14:40:03.446Z,6.65
2024-03-12T14:45:03.055Z,6.22
2024-03-12T14:50:02.572Z,6.62
2024-03-12T14:55:03.135Z,6.54
2024-03-12T15:00:05.567Z,6.09
2024-03-12T15:05:02.390Z,6.29
2024-03-12T15:10:03.100Z,6.79
2024-03-12T15:15:02.712Z,6.79
2024-03-12T15:20:03.279Z,6.69
2024-03-12T15:25:02.872Z,6.42
2024-03-12T15:30:02.659Z,6.44
2024-03-12T15:35:03.324Z,6.16
2024-03-12T15:40:02.933Z,5.68
2024-03-12T15:45:02.477Z,5.74
2024-03-12T15:50:03.005Z,6
2024-03-12T15:55:02.601Z,6.33
2024-03-12T16:00:03.196Z,6.27
2024-03-12T16:05:02.751Z,6.34
2024-03-12T16:10:03.655Z,6.52
2024-03-12T16:15:03.357Z,6.79
2024-03-12T16:20:03.156Z,6.64
2024-03-12T16:25:02.732Z,6.79
2024-03-12T16:30:03.260Z,7.2
2024-03-12T16:35:02.956Z,7.62
2024-03-12T16:40:02.681Z,7.93
2024-03-12T16:45:03.223Z,8.35
2024-03-12T16:50:02.766Z,8.58
2024-03-12T16:55:03.331Z,8.86
2024-03-12T17:00:02.823Z,9.13
2024-03-12T17:05:03.350Z,9.33
2024-03-12T17:10:03.021Z,9.5
2024-03-12T17:15:02.709Z,9.2
2024-03-12T17:20:03.323Z,9.2
2024-03-12T17:25:03.048Z,9.24
2024-03-12T17:30:03.230Z,9.59
2024-03-12T17:35:02.830Z,10.16
2024-03-12T17:40:02.402Z,10.91
2024-03-12T17:45:02.960Z,11.82
2024-03-12T17:50:02.419Z,12.72
2024-03-12T17:55:02.990Z,13.7
2024-03-12T18:00:04.586Z,14.8
2024-03-12T18:05:03.378Z,15.74
2024-03-12T18:10:03.082Z,16.59
2024-03-12T18:15:02.638Z,17.17
2024-03-12T18:20:03.290Z,17.18
2024-03-12T18:25:02.974Z,17.17
2024-03-12T18:30:02.478Z,17.42
2024-03-12T18:35:03.014Z,17.31
2024-03-12T18:40:03.747Z,17.56
2024-03-12T18:45:04.082Z,17.54
2024-03-12T18:50:02.788Z,17.68
2024-03-12T18:55:03.535Z,18.1
2024-03-12T19:00:04.301Z,18.49
2024-03-12T19:05:02.824Z,19.31
2024-03-12T19:10:03.340Z,19.4
2024-03-12T19:15:02.905Z,19.44
2024-03-12T19:20:02.512Z,19.07
2024-03-12T19:25:03.060Z,19.57
2024-03-12T19:30:02.554Z,19.54
2024-03-12T19:35:03.081Z,19.54
2024-03-12T19:40:02.850Z,19.63
2024-03-12T19:45:03.492Z,19.26
2024-03-12T19:50:03.295Z,19.63
2024-03-12T19:55:03.546Z,19.4
2024-03-12T20:00:03.780Z,19.7
2024-03-12T20:05:04.084Z,19.8
2024-03-12T20:10:02.815Z,19.73
2024-03-12T20:15:03.343Z,19.54
2024-03-12T20:20:02.808Z,19.04
2024-03-12T20:25:03.360Z,18.76
2024-03-12T20:30:02.813Z,18.74
2024-03-12T20:35:03.419Z,18.26
2024-03-12T20:40:03.041Z,17.71
2024-03-12T20:45:02.681Z,17.73
2024-03-12T20:50:03.206Z,17.95
2024-03-12T20:55:02.793Z,17.56
2024-03-12T21:00:03.301Z,18.03
2024-03-12T21:05:02.832Z,18.12
2024-03-12T21:10:03.432Z,18.45
2024-03-12T21:15:03.009Z,18.38
2024-03-12T21:20:03.151Z,19.23
2024-03-12T21:25:02.724Z,19.52
2024-03-12T21:30:03.340Z,19.55
2024-03-12T21:35:02.783Z,19.71
2024-03-12T21:40:03.342Z,19.41
2024-03-12T21:45:02.946Z,19.82
2024-03-12T21:50:02.375Z,19.88
2024-03-12T21:55:02.958Z,19.54
2024-03-12T22:00:02.393Z,19.96
2024-03-12T22:05:02.951Z,19.96
2024-03-12T22:10:02.566Z,20.06
2024-03-12T22:15:03.179Z,20.06
2024-03-12T22:20:03.203Z,19.73
2024-03-12T22:25:02.785Z,20.09
2024-03-12T22:30:03.286Z,19.79
2024-03-12T22:35:02.884Z,19.59
2024-03-12T22:40:02.558Z,20.12
2024-03-12T22:45:03.406Z,20.23
2024-03-12T22:50:03.266Z,20.33
2024-03-12T22:55:03.009Z,20.2
2024-03-12T23:00:02.707Z,19.64
2024-03-12T23:05:03.986Z,20.2
2024-03-12T23:10:02.648Z,20.12
2024-03-12T23:15:03.323Z,20.37
2024-03-12T23:20:03.318Z,20.41
2024-03-12T23:25:03.050Z,20.37
2024-03-12T23:30:03.086Z,20.55
2024-03-12T23:35:02.843Z,20.2
2024-03-12T23:40:02.613Z,20.46
2024-03-12T23:45:03.252Z,20.46
2024-03-12T23:50:02.980Z,20.46
2024-03-12T23:55:02.709Z,20.29
